sensor_id;sensor_type;location;lat;lon;timestamp;P1;durP1;ratioP1;P2;durP2;ratioP2
72882;SDS011;61017;37.812;-122.286;2022-10-16T00:00:57;12.27;;;8.85;;
72882;SDS011;61017;37.812;-122.286;2022-10-16T00:02:53;15.60;;;8.95;;
72882;SDS011;61017;37.812;-122.286;2022-10-16T00:04:43;14.20;;;9.88;;
72882;SDS011;61017;37.812;-122.286;2022-10-16T00:06:33;16.00;;;9.70;;
72882;SDS011;61017;37.812;-122.286;2022-10-16T00:08:23;18.60;;;11.10;;
72882;SDS011;61017;37.812;-122.286;2022-10-16T00:10:13;15.90;;;10.20;;
72882;SDS011;61017;37.812;-122.286;2022-10-16T00:12:03;15.82;;;10.27;;
72882;SDS011;61017;37.812;-122.286;2022-10-16T00:13:57;15.50;;;9.80;;
72882;SDS011;61017;37.812;-122.286;2022-10-16T00:15:48;15.95;;;9.70;;
72882;SDS011;61017;37.812;-122.286;2022-10-16T00:17:38;18.70;;;10.05;;
72882;SDS011;61017;37.812;-122.286;2022-10-16T00:19:28;17.88;;;10.60;;
72882;SDS011;61017;37.812;-122.286;2022-10-16T00:21:19;16.98;;;10.07;;
72882;SDS011;61017;37.812;-122.286;2022-10-16T00:23:15;15.30;;;10.20;;
72882;SDS011;61017;37.812;-122.286;2022-10-16T00:25:06;22.75;;;10.40;;
72882;SDS011;61017;37.812;-122.286;2022-10-16T00:26:56;18.30;;;10.43;;
72882;SDS011;61017;37.812;-122.286;2022-10-16T00:28:47;17.83;;;9.75;;
72882;SDS011;61017;37.812;-122.286;2022-10-16T00:30:38;15.63;;;10.43;;
72882;SDS011;61017;37.812;-122.286;2022-10-16T00:32:28;19.42;;;10.95;;
72882;SDS011;61017;37.812;-122.286;2022-10-16T00:34:18;16.65;;;10.32;;
72882;SDS011;61017;37.812;-122.286;2022-10-16T00:36:13;17.95;;;10.50;;
72882;SDS011;61017;37.812;-122.286;2022-10-16T00:38:04;21.25;;;11.32;;
72882;SDS011;61017;37.812;-122.286;2022-10-16T00:39:54;16.52;;;9.85;;
72882;SDS011;61017;37.812;-122.286;2022-10-16T00:41:44;16.83;;;10.50;;
72882;SDS011;61017;37.812;-122.286;2022-10-16T00:45:31;27.10;;;11.20;;
72882;SDS011;61017;37.812;-122.286;2022-10-16T00:47:26;21.98;;;10.65;;
72882;SDS011;61017;37.812;-122.286;2022-10-16T00:49:25;21.20;;;10.52;;
72882;SDS011;61017;37.812;-122.286;2022-10-16T00:51:15;21.42;;;10.80;;
72882;SDS011;61017;37.812;-122.286;2022-10-16T00:53:10;21.58;;;11.30;;
72882;SDS011;61017;37.812;-122.286;2022-10-16T00:55:02;20.50;;;11.32;;
72882;SDS011;61017;37.812;-122.286;2022-10-16T00:56:53;25.70;;;11.77;;
72882;SDS011;61017;37.812;-122.286;2022-10-16T00:58:45;22.08;;;11.40;;
72882;SDS011;61017;37.812;-122.286;2022-10-16T01:00:35;24.05;;;12.15;;
72882;SDS011;61017;37.812;-122.286;2022-10-16T01:02:25;19.27;;;11.00;;
72882;SDS011;61017;37.812;-122.286;2022-10-16T01:04:15;17.13;;;11.50;;
72882;SDS011;61017;37.812;-122.286;2022-10-16T01:08:23;21.10;;;10.68;;
72882;SDS011;61017;37.812;-122.286;2022-10-16T01:16:44;19.95;;;12.05;;
72882;SDS011;61017;37.812;-122.286;2022-10-16T01:18:43;20.42;;;11.13;;
72882;SDS011;61017;37.812;-122.286;2022-10-16T01:20:40;19.88;;;10.90;;
72882;SDS011;61017;37.812;-122.286;2022-10-16T01:23:15;20.40;;;11.18;;
72882;SDS011;61017;37.812;-122.286;2022-10-16T01:25:22;19.95;;;11.43;;
72882;SDS011;61017;37.812;-122.286;2022-10-16T01:27:35;20.73;;;11.13;;
72882;SDS011;61017;37.812;-122.286;2022-10-16T01:29:29;18.57;;;11.30;;
72882;SDS011;61017;37.812;-122.286;2022-10-16T01:31:44;21.67;;;11.00;;
72882;SDS011;61017;37.812;-122.286;2022-10-16T01:33:40;18.52;;;11.45;;
72882;SDS011;61017;37.812;-122.286;2022-10-16T01:35:35;21.70;;;11.57;;
72882;SDS011;61017;37.812;-122.286;2022-10-16T01:39:24;29.50;;;11.82;;
72882;SDS011;61017;37.812;-122.286;2022-10-16T01:41:21;22.05;;;11.00;;
72882;SDS011;61017;37.812;-122.286;2022-10-16T01:43:20;24.65;;;12.02;;
72882;SDS011;61017;37.812;-122.286;2022-10-16T01:45:14;32.90;;;12.98;;
72882;SDS011;61017;37.812;-122.286;2022-10-16T01:47:07;40.95;;;13.50;;
72882;SDS011;61017;37.812;-122.286;2022-10-16T01:49:00;31.43;;;12.20;;
72882;SDS011;61017;37.812;-122.286;2022-10-16T01:50:55;29.90;;;11.57;;
72882;SDS011;61017;37.812;-122.286;2022-10-16T01:52:54;34.45;;;12.65;;
72882;SDS011;61017;37.812;-122.286;2022-10-16T01:54:47;28.73;;;12.35;;
72882;SDS011;61017;37.812;-122.286;2022-10-16T01:56:42;27.52;;;12.85;;
72882;SDS011;61017;37.812;-122.286;2022-10-16T01:58:33;28.67;;;12.63;;
72882;SDS011;61017;37.812;-122.286;2022-10-16T02:00:27;30.98;;;12.88;;
72882;SDS011;61017;37.812;-122.286;2022-10-16T02:02:19;24.20;;;12.27;;
72882;SDS011;61017;37.812;-122.286;2022-10-16T02:04:19;31.23;;;12.68;;
72882;SDS011;61017;37.812;-122.286;2022-10-16T02:06:16;25.50;;;12.63;;
72882;SDS011;61017;37.812;-122.286;2022-10-16T02:08:06;30.10;;;12.57;;
72882;SDS011;61017;37.812;-122.286;2022-10-16T02:09:57;29.90;;;11.82;;
72882;SDS011;61017;37.812;-122.286;2022-10-16T02:11:50;31.05;;;13.02;;
72882;SDS011;61017;37.812;-122.286;2022-10-16T02:13:48;31.52;;;12.98;;
72882;SDS011;61017;37.812;-122.286;2022-10-16T02:15:58;30.65;;;12.77;;
72882;SDS011;61017;37.812;-122.286;2022-10-16T02:17:49;26.83;;;12.23;;
72882;SDS011;61017;37.812;-122.286;2022-10-16T02:19:39;29.48;;;11.93;;
72882;SDS011;61017;37.812;-122.286;2022-10-16T02:21:33;31.33;;;12.48;;
72882;SDS011;61017;37.812;-122.286;2022-10-16T02:25:43;28.95;;;12.60;;
72882;SDS011;61017;37.812;-122.286;2022-10-16T02:29:30;27.80;;;12.63;;
72882;SDS011;61017;37.812;-122.286;2022-10-16T02:31:23;21.67;;;11.75;;
72882;SDS011;61017;37.812;-122.286;2022-10-16T02:33:18;25.65;;;12.07;;
72882;SDS011;61017;37.812;-122.286;2022-10-16T02:35:10;21.42;;;11.80;;
72882;SDS011;61017;37.812;-122.286;2022-10-16T02:37:03;24.80;;;11.98;;
72882;SDS011;61017;37.812;-122.286;2022-10-16T02:38:56;25.67;;;12.23;;
72882;SDS011;61017;37.812;-122.286;2022-10-16T02:40:47;25.55;;;12.43;;
72882;SDS011;61017;37.812;-122.286;2022-10-16T02:42:38;27.05;;;11.70;;
72882;SDS011;61017;37.812;-122.286;2022-10-16T02:44:29;20.52;;;11.80;;
72882;SDS011;61017;37.812;-122.286;2022-10-16T02:46:19;19.70;;;11.13;;
72882;SDS011;61017;37.812;-122.286;2022-10-16T02:48:10;20.98;;;11.82;;
72882;SDS011;61017;37.812;-122.286;2022-10-16T02:50:00;20.00;;;11.75;;
72882;SDS011;61017;37.812;-122.286;2022-10-16T02:51:50;23.88;;;12.57;;
72882;SDS011;61017;37.812;-122.286;2022-10-16T02:53:40;22.63;;;12.10;;
72882;SDS011;61017;37.812;-122.286;2022-10-16T02:55:30;20.58;;;11.23;;
72882;SDS011;61017;37.812;-122.286;2022-10-16T02:57:19;28.25;;;12.15;;
72882;SDS011;61017;37.812;-122.286;2022-10-16T02:59:10;21.20;;;11.55;;
72882;SDS011;61017;37.812;-122.286;2022-10-16T03:01:00;23.35;;;12.20;;
72882;SDS011;61017;37.812;-122.286;2022-10-16T03:02:50;23.02;;;11.48;;
72882;SDS011;61017;37.812;-122.286;2022-10-16T03:04:40;20.90;;;11.82;;
72882;SDS011;61017;37.812;-122.286;2022-10-16T03:06:30;18.90;;;11.90;;
72882;SDS011;61017;37.812;-122.286;2022-10-16T03:08:20;18.50;;;11.43;;
72882;SDS011;61017;37.812;-122.286;2022-10-16T03:10:10;21.65;;;11.52;;
72882;SDS011;61017;37.812;-122.286;2022-10-16T03:12:00;21.50;;;11.68;;
72882;SDS011;61017;37.812;-122.286;2022-10-16T03:13:50;23.13;;;12.50;;
72882;SDS011;61017;37.812;-122.286;2022-10-16T03:15:41;21.88;;;12.10;;
72882;SDS011;61017;37.812;-122.286;2022-10-16T03:17:31;17.33;;;11.70;;
72882;SDS011;61017;37.812;-122.286;2022-10-16T03:19:22;22.25;;;12.10;;
72882;SDS011;61017;37.812;-122.286;2022-10-16T03:21:11;22.52;;;12.25;;
72882;SDS011;61017;37.812;-122.286;2022-10-16T03:23:01;20.50;;;11.75;;
72882;SDS011;61017;37.812;-122.286;2022-10-16T03:24:51;21.27;;;12.05;;
72882;SDS011;61017;37.812;-122.286;2022-10-16T03:26:41;20.83;;;11.50;;
72882;SDS011;61017;37.812;-122.286;2022-10-16T03:28:31;21.00;;;12.45;;
72882;SDS011;61017;37.812;-122.286;2022-10-16T03:30:21;19.48;;;12.32;;
72882;SDS011;61017;37.812;-122.286;2022-10-16T03:32:10;18.33;;;11.55;;
72882;SDS011;61017;37.812;-122.286;2022-10-16T03:34:00;20.23;;;11.85;;
72882;SDS011;61017;37.812;-122.286;2022-10-16T03:35:51;19.88;;;11.50;;
72882;SDS011;61017;37.812;-122.286;2022-10-16T03:37:42;20.52;;;12.38;;
72882;SDS011;61017;37.812;-122.286;2022-10-16T03:39:32;21.05;;;11.32;;
72882;SDS011;61017;37.812;-122.286;2022-10-16T03:41:21;17.48;;;10.85;;
72882;SDS011;61017;37.812;-122.286;2022-10-16T03:43:11;20.38;;;11.85;;
72882;SDS011;61017;37.812;-122.286;2022-10-16T03:45:02;17.33;;;11.90;;
72882;SDS011;61017;37.812;-122.286;2022-10-16T03:46:53;21.58;;;11.48;;
72882;SDS011;61017;37.812;-122.286;2022-10-16T03:48:43;22.30;;;12.18;;
72882;SDS011;61017;37.812;-122.286;2022-10-16T03:50:32;22.92;;;12.30;;
72882;SDS011;61017;37.812;-122.286;2022-10-16T03:52:23;20.27;;;11.98;;
72882;SDS011;61017;37.812;-122.286;2022-10-16T03:54:13;18.80;;;11.88;;
72882;SDS011;61017;37.812;-122.286;2022-10-16T03:56:03;18.65;;;11.23;;
72882;SDS011;61017;37.812;-122.286;2022-10-16T03:57:53;20.90;;;11.73;;
72882;SDS011;61017;37.812;-122.286;2022-10-16T03:59:43;22.08;;;11.98;;
72882;SDS011;61017;37.812;-122.286;2022-10-16T04:01:33;21.30;;;12.43;;
72882;SDS011;61017;37.812;-122.286;2022-10-16T04:03:23;18.80;;;11.98;;
72882;SDS011;61017;37.812;-122.286;2022-10-16T04:05:14;18.08;;;11.45;;
72882;SDS011;61017;37.812;-122.286;2022-10-16T04:07:04;21.08;;;12.65;;
72882;SDS011;61017;37.812;-122.286;2022-10-16T04:08:54;19.35;;;11.80;;
72882;SDS011;61017;37.812;-122.286;2022-10-16T04:10:44;19.50;;;12.32;;
72882;SDS011;61017;37.812;-122.286;2022-10-16T04:12:35;17.92;;;12.05;;
72882;SDS011;61017;37.812;-122.286;2022-10-16T04:14:25;18.98;;;11.88;;
72882;SDS011;61017;37.812;-122.286;2022-10-16T04:16:15;19.98;;;11.55;;
72882;SDS011;61017;37.812;-122.286;2022-10-16T04:18:05;21.08;;;11.68;;
72882;SDS011;61017;37.812;-122.286;2022-10-16T04:19:55;19.17;;;11.18;;
72882;SDS011;61017;37.812;-122.286;2022-10-16T04:21:45;17.85;;;11.45;;
72882;SDS011;61017;37.812;-122.286;2022-10-16T04:23:35;20.00;;;12.02;;
72882;SDS011;61017;37.812;-122.286;2022-10-16T04:25:25;20.33;;;12.40;;
72882;SDS011;61017;37.812;-122.286;2022-10-16T04:27:15;20.85;;;12.38;;
72882;SDS011;61017;37.812;-122.286;2022-10-16T04:29:05;18.08;;;12.45;;
72882;SDS011;61017;37.812;-122.286;2022-10-16T04:30:55;20.55;;;12.52;;
72882;SDS011;61017;37.812;-122.286;2022-10-16T04:32:52;21.80;;;11.98;;
72882;SDS011;61017;37.812;-122.286;2022-10-16T04:34:42;19.00;;;11.93;;
72882;SDS011;61017;37.812;-122.286;2022-10-16T04:36:33;20.98;;;12.32;;
72882;SDS011;61017;37.812;-122.286;2022-10-16T04:38:23;20.58;;;12.55;;
72882;SDS011;61017;37.812;-122.286;2022-10-16T04:40:13;19.83;;;11.60;;
72882;SDS011;61017;37.812;-122.286;2022-10-16T04:42:03;19.38;;;12.13;;
72882;SDS011;61017;37.812;-122.286;2022-10-16T04:43:53;21.17;;;12.35;;
72882;SDS011;61017;37.812;-122.286;2022-10-16T04:45:43;18.58;;;11.40;;
72882;SDS011;61017;37.812;-122.286;2022-10-16T04:47:33;21.67;;;12.30;;
72882;SDS011;61017;37.812;-122.286;2022-10-16T04:49:23;18.05;;;11.02;;
72882;SDS011;61017;37.812;-122.286;2022-10-16T04:51:13;19.48;;;11.43;;
72882;SDS011;61017;37.812;-122.286;2022-10-16T04:53:03;17.92;;;11.75;;
72882;SDS011;61017;37.812;-122.286;2022-10-16T04:54:53;19.05;;;11.77;;
72882;SDS011;61017;37.812;-122.286;2022-10-16T04:56:43;19.02;;;11.93;;
72882;SDS011;61017;37.812;-122.286;2022-10-16T04:58:33;20.67;;;12.50;;
72882;SDS011;61017;37.812;-122.286;2022-10-16T05:00:23;18.45;;;11.93;;
72882;SDS011;61017;37.812;-122.286;2022-10-16T05:02:13;22.50;;;12.27;;
72882;SDS011;61017;37.812;-122.286;2022-10-16T05:04:03;19.33;;;12.02;;
72882;SDS011;61017;37.812;-122.286;2022-10-16T05:05:53;22.02;;;11.77;;
72882;SDS011;61017;37.812;-122.286;2022-10-16T05:07:43;19.98;;;12.63;;
72882;SDS011;61017;37.812;-122.286;2022-10-16T05:09:33;19.67;;;11.63;;
72882;SDS011;61017;37.812;-122.286;2022-10-16T05:11:22;19.60;;;11.80;;
72882;SDS011;61017;37.812;-122.286;2022-10-16T05:13:13;19.52;;;12.15;;
72882;SDS011;61017;37.812;-122.286;2022-10-16T05:15:03;19.33;;;11.23;;
72882;SDS011;61017;37.812;-122.286;2022-10-16T05:16:53;20.50;;;11.80;;
72882;SDS011;61017;37.812;-122.286;2022-10-16T05:18:43;17.30;;;11.07;;
72882;SDS011;61017;37.812;-122.286;2022-10-16T05:20:33;18.65;;;11.55;;
72882;SDS011;61017;37.812;-122.286;2022-10-16T05:22:23;20.98;;;11.40;;
72882;SDS011;61017;37.812;-122.286;2022-10-16T05:24:13;19.92;;;11.85;;
72882;SDS011;61017;37.812;-122.286;2022-10-16T05:26:03;19.52;;;12.02;;
72882;SDS011;61017;37.812;-122.286;2022-10-16T05:27:53;16.95;;;11.27;;
72882;SDS011;61017;37.812;-122.286;2022-10-16T05:29:44;17.80;;;11.52;;
72882;SDS011;61017;37.812;-122.286;2022-10-16T05:31:34;20.35;;;11.95;;
72882;SDS011;61017;37.812;-122.286;2022-10-16T05:33:25;19.42;;;11.80;;
72882;SDS011;61017;37.812;-122.286;2022-10-16T05:35:16;19.67;;;11.32;;
72882;SDS011;61017;37.812;-122.286;2022-10-16T05:37:07;18.58;;;11.90;;
72882;SDS011;61017;37.812;-122.286;2022-10-16T05:38:57;19.98;;;12.20;;
72882;SDS011;61017;37.812;-122.286;2022-10-16T05:40:50;21.15;;;11.82;;
72882;SDS011;61017;37.812;-122.286;2022-10-16T05:42:41;17.80;;;11.82;;
72882;SDS011;61017;37.812;-122.286;2022-10-16T05:44:31;18.95;;;11.85;;
72882;SDS011;61017;37.812;-122.286;2022-10-16T05:46:21;19.95;;;12.13;;
72882;SDS011;61017;37.812;-122.286;2022-10-16T05:48:12;20.48;;;12.43;;
72882;SDS011;61017;37.812;-122.286;2022-10-16T05:50:02;19.02;;;11.65;;
72882;SDS011;61017;37.812;-122.286;2022-10-16T05:51:52;21.90;;;12.27;;
72882;SDS011;61017;37.812;-122.286;2022-10-16T05:53:42;18.75;;;11.00;;
72882;SDS011;61017;37.812;-122.286;2022-10-16T05:55:32;20.38;;;12.20;;
72882;SDS011;61017;37.812;-122.286;2022-10-16T05:57:22;22.65;;;12.02;;
72882;SDS011;61017;37.812;-122.286;2022-10-16T05:59:12;18.73;;;11.35;;
72882;SDS011;61017;37.812;-122.286;2022-10-16T06:01:06;19.45;;;11.55;;
72882;SDS011;61017;37.812;-122.286;2022-10-16T06:02:59;18.67;;;11.60;;
72882;SDS011;61017;37.812;-122.286;2022-10-16T06:04:51;19.52;;;11.35;;
72882;SDS011;61017;37.812;-122.286;2022-10-16T06:06:42;18.30;;;11.10;;
72882;SDS011;61017;37.812;-122.286;2022-10-16T06:08:33;22.70;;;11.68;;
72882;SDS011;61017;37.812;-122.286;2022-10-16T06:10:23;19.45;;;11.68;;
72882;SDS011;61017;37.812;-122.286;2022-10-16T06:12:13;19.05;;;11.20;;
72882;SDS011;61017;37.812;-122.286;2022-10-16T06:14:03;17.70;;;11.23;;
72882;SDS011;61017;37.812;-122.286;2022-10-16T06:15:56;21.05;;;11.70;;
72882;SDS011;61017;37.812;-122.286;2022-10-16T06:17:47;19.23;;;11.25;;
72882;SDS011;61017;37.812;-122.286;2022-10-16T06:19:37;17.30;;;11.07;;
72882;SDS011;61017;37.812;-122.286;2022-10-16T06:21:27;21.08;;;11.52;;
72882;SDS011;61017;37.812;-122.286;2022-10-16T06:23:18;19.33;;;11.23;;
72882;SDS011;61017;37.812;-122.286;2022-10-16T06:25:08;21.05;;;11.25;;
72882;SDS011;61017;37.812;-122.286;2022-10-16T06:26:58;20.52;;;11.27;;
72882;SDS011;61017;37.812;-122.286;2022-10-16T06:28:48;19.15;;;10.75;;
72882;SDS011;61017;37.812;-122.286;2022-10-16T06:30:38;19.95;;;11.60;;
72882;SDS011;61017;37.812;-122.286;2022-10-16T06:32:28;19.30;;;11.43;;
72882;SDS011;61017;37.812;-122.286;2022-10-16T06:34:18;18.83;;;10.70;;
72882;SDS011;61017;37.812;-122.286;2022-10-16T06:36:12;16.63;;;11.32;;
72882;SDS011;61017;37.812;-122.286;2022-10-16T06:38:04;16.58;;;11.18;;
72882;SDS011;61017;37.812;-122.286;2022-10-16T06:39:54;17.70;;;11.13;;
72882;SDS011;61017;37.812;-122.286;2022-10-16T06:41:44;20.60;;;10.85;;
72882;SDS011;61017;37.812;-122.286;2022-10-16T06:43:34;17.80;;;10.77;;
72882;SDS011;61017;37.812;-122.286;2022-10-16T06:45:24;17.77;;;10.43;;
72882;SDS011;61017;37.812;-122.286;2022-10-16T06:47:14;18.23;;;10.80;;
72882;SDS011;61017;37.812;-122.286;2022-10-16T06:49:04;18.42;;;11.02;;
72882;SDS011;61017;37.812;-122.286;2022-10-16T06:51:04;18.58;;;10.82;;
72882;SDS011;61017;37.812;-122.286;2022-10-16T06:52:56;20.25;;;11.02;;
72882;SDS011;61017;37.812;-122.286;2022-10-16T06:54:46;18.85;;;11.10;;
72882;SDS011;61017;37.812;-122.286;2022-10-16T06:56:36;17.48;;;10.30;;
72882;SDS011;61017;37.812;-122.286;2022-10-16T06:58:26;20.13;;;11.25;;
72882;SDS011;61017;37.812;-122.286;2022-10-16T07:00:16;18.55;;;10.80;;
72882;SDS011;61017;37.812;-122.286;2022-10-16T07:02:07;19.13;;;10.55;;
72882;SDS011;61017;37.812;-122.286;2022-10-16T07:03:58;20.33;;;11.20;;
72882;SDS011;61017;37.812;-122.286;2022-10-16T07:05:49;18.77;;;10.90;;
72882;SDS011;61017;37.812;-122.286;2022-10-16T07:07:39;17.50;;;10.85;;
72882;SDS011;61017;37.812;-122.286;2022-10-16T07:09:29;19.52;;;10.43;;
72882;SDS011;61017;37.812;-122.286;2022-10-16T07:11:20;17.77;;;10.88;;
72882;SDS011;61017;37.812;-122.286;2022-10-16T07:13:12;19.60;;;11.07;;
72882;SDS011;61017;37.812;-122.286;2022-10-16T07:15:03;21.10;;;11.65;;
72882;SDS011;61017;37.812;-122.286;2022-10-16T07:16:53;17.58;;;10.57;;
72882;SDS011;61017;37.812;-122.286;2022-10-16T07:18:44;17.60;;;10.70;;
72882;SDS011;61017;37.812;-122.286;2022-10-16T07:20:34;17.35;;;11.15;;
72882;SDS011;61017;37.812;-122.286;2022-10-16T07:22:24;17.98;;;10.88;;
72882;SDS011;61017;37.812;-122.286;2022-10-16T07:24:14;18.27;;;10.85;;
72882;SDS011;61017;37.812;-122.286;2022-10-16T07:26:05;17.55;;;11.63;;
72882;SDS011;61017;37.812;-122.286;2022-10-16T07:27:56;16.05;;;10.50;;
72882;SDS011;61017;37.812;-122.286;2022-10-16T07:29:46;17.20;;;11.00;;
72882;SDS011;61017;37.812;-122.286;2022-10-16T07:31:36;18.83;;;11.05;;
72882;SDS011;61017;37.812;-122.286;2022-10-16T07:33:26;15.82;;;9.98;;
72882;SDS011;61017;37.812;-122.286;2022-10-16T07:35:16;18.85;;;10.48;;
72882;SDS011;61017;37.812;-122.286;2022-10-16T07:37:07;17.25;;;10.98;;
72882;SDS011;61017;37.812;-122.286;2022-10-16T07:38:56;16.00;;;10.30;;
72882;SDS011;61017;37.812;-122.286;2022-10-16T07:40:47;17.60;;;10.25;;
72882;SDS011;61017;37.812;-122.286;2022-10-16T07:42:37;17.83;;;10.15;;
72882;SDS011;61017;37.812;-122.286;2022-10-16T07:44:27;19.08;;;11.20;;
72882;SDS011;61017;37.812;-122.286;2022-10-16T07:46:17;19.48;;;10.80;;
72882;SDS011;61017;37.812;-122.286;2022-10-16T07:48:08;21.23;;;10.60;;
72882;SDS011;61017;37.812;-122.286;2022-10-16T07:49:58;17.85;;;10.10;;
72882;SDS011;61017;37.812;-122.286;2022-10-16T07:51:50;17.02;;;10.52;;
72882;SDS011;61017;37.812;-122.286;2022-10-16T07:53:40;18.40;;;10.40;;
72882;SDS011;61017;37.812;-122.286;2022-10-16T07:55:31;17.05;;;10.85;;
72882;SDS011;61017;37.812;-122.286;2022-10-16T07:57:21;17.52;;;10.27;;
72882;SDS011;61017;37.812;-122.286;2022-10-16T07:59:11;18.00;;;10.23;;
72882;SDS011;61017;37.812;-122.286;2022-10-16T08:01:03;18.17;;;10.82;;
72882;SDS011;61017;37.812;-122.286;2022-10-16T08:02:54;17.15;;;10.68;;
72882;SDS011;61017;37.812;-122.286;2022-10-16T08:04:46;18.00;;;10.73;;
72882;SDS011;61017;37.812;-122.286;2022-10-16T08:06:37;18.98;;;11.25;;
72882;SDS011;61017;37.812;-122.286;2022-10-16T08:08:28;17.48;;;10.77;;
72882;SDS011;61017;37.812;-122.286;2022-10-16T08:10:20;17.33;;;10.45;;
72882;SDS011;61017;37.812;-122.286;2022-10-16T08:12:11;18.70;;;9.80;;
72882;SDS011;61017;37.812;-122.286;2022-10-16T08:14:01;18.10;;;10.60;;
72882;SDS011;61017;37.812;-122.286;2022-10-16T08:15:51;17.58;;;10.38;;
72882;SDS011;61017;37.812;-122.286;2022-10-16T08:17:43;17.45;;;10.73;;
72882;SDS011;61017;37.812;-122.286;2022-10-16T08:19:34;19.05;;;11.40;;
72882;SDS011;61017;37.812;-122.286;2022-10-16T08:21:23;19.92;;;11.18;;
72882;SDS011;61017;37.812;-122.286;2022-10-16T08:23:13;18.20;;;10.93;;
72882;SDS011;61017;37.812;-122.286;2022-10-16T08:25:03;18.05;;;11.32;;
72882;SDS011;61017;37.812;-122.286;2022-10-16T08:26:54;19.48;;;10.82;;
72882;SDS011;61017;37.812;-122.286;2022-10-16T08:28:44;21.17;;;11.40;;
72882;SDS011;61017;37.812;-122.286;2022-10-16T08:30:34;21.58;;;11.20;;
72882;SDS011;61017;37.812;-122.286;2022-10-16T08:32:24;18.02;;;10.57;;
72882;SDS011;61017;37.812;-122.286;2022-10-16T08:34:14;20.88;;;11.48;;
72882;SDS011;61017;37.812;-122.286;2022-10-16T08:36:05;20.73;;;11.32;;
72882;SDS011;61017;37.812;-122.286;2022-10-16T08:37:55;15.68;;;10.60;;
72882;SDS011;61017;37.812;-122.286;2022-10-16T08:39:45;19.00;;;10.77;;
72882;SDS011;61017;37.812;-122.286;2022-10-16T08:41:56;19.20;;;10.98;;
72882;SDS011;61017;37.812;-122.286;2022-10-16T08:44:02;18.30;;;11.50;;
72882;SDS011;61017;37.812;-122.286;2022-10-16T08:49:59;20.30;;;11.55;;
72882;SDS011;61017;37.812;-122.286;2022-10-16T08:51:55;19.63;;;11.02;;
72882;SDS011;61017;37.812;-122.286;2022-10-16T08:55:49;17.50;;;10.57;;
72882;SDS011;61017;37.812;-122.286;2022-10-16T08:57:41;17.23;;;11.30;;
72882;SDS011;61017;37.812;-122.286;2022-10-16T08:59:31;18.30;;;11.50;;
72882;SDS011;61017;37.812;-122.286;2022-10-16T09:01:23;21.67;;;11.30;;
72882;SDS011;61017;37.812;-122.286;2022-10-16T09:11:50;17.83;;;10.85;;
72882;SDS011;61017;37.812;-122.286;2022-10-16T09:13:55;22.25;;;11.82;;
72882;SDS011;61017;37.812;-122.286;2022-10-16T09:18:12;20.08;;;11.15;;
72882;SDS011;61017;37.812;-122.286;2022-10-16T09:22:17;19.35;;;12.30;;
72882;SDS011;61017;37.812;-122.286;2022-10-16T09:26:11;20.17;;;11.60;;
72882;SDS011;61017;37.812;-122.286;2022-10-16T09:28:02;23.33;;;13.35;;
72882;SDS011;61017;37.812;-122.286;2022-10-16T09:29:53;18.77;;;12.43;;
72882;SDS011;61017;37.812;-122.286;2022-10-16T09:31:43;18.17;;;11.95;;
72882;SDS011;61017;37.812;-122.286;2022-10-16T09:33:36;17.70;;;11.88;;
72882;SDS011;61017;37.812;-122.286;2022-10-16T09:35:38;18.90;;;12.85;;
72882;SDS011;61017;37.812;-122.286;2022-10-16T09:37:37;21.13;;;13.05;;
72882;SDS011;61017;37.812;-122.286;2022-10-16T09:39:28;20.05;;;12.10;;
72882;SDS011;61017;37.812;-122.286;2022-10-16T09:43:22;19.58;;;12.55;;
72882;SDS011;61017;37.812;-122.286;2022-10-16T09:45:21;19.40;;;12.55;;
72882;SDS011;61017;37.812;-122.286;2022-10-16T09:47:17;20.13;;;12.73;;
72882;SDS011;61017;37.812;-122.286;2022-10-16T09:49:22;19.02;;;12.48;;
72882;SDS011;61017;37.812;-122.286;2022-10-16T09:51:25;22.38;;;13.38;;
72882;SDS011;61017;37.812;-122.286;2022-10-16T09:53:26;20.60;;;13.15;;
72882;SDS011;61017;37.812;-122.286;2022-10-16T09:55:31;20.52;;;13.15;;
72882;SDS011;61017;37.812;-122.286;2022-10-16T09:57:21;21.83;;;13.95;;
72882;SDS011;61017;37.812;-122.286;2022-10-16T09:59:14;23.73;;;14.52;;
72882;SDS011;61017;37.812;-122.286;2022-10-16T10:01:05;23.63;;;14.43;;
72882;SDS011;61017;37.812;-122.286;2022-10-16T10:03:01;22.15;;;14.13;;
72882;SDS011;61017;37.812;-122.286;2022-10-16T10:04:58;22.52;;;15.05;;
72882;SDS011;61017;37.812;-122.286;2022-10-16T10:06:50;21.85;;;14.30;;
72882;SDS011;61017;37.812;-122.286;2022-10-16T10:10:54;24.25;;;14.60;;
72882;SDS011;61017;37.812;-122.286;2022-10-16T10:12:44;25.40;;;16.00;;
72882;SDS011;61017;37.812;-122.286;2022-10-16T10:14:38;25.73;;;15.35;;
72882;SDS011;61017;37.812;-122.286;2022-10-16T10:16:34;25.65;;;15.50;;
72882;SDS011;61017;37.812;-122.286;2022-10-16T10:18:26;26.75;;;15.60;;
72882;SDS011;61017;37.812;-122.286;2022-10-16T10:22:26;26.13;;;15.13;;
72882;SDS011;61017;37.812;-122.286;2022-10-16T10:24:28;27.98;;;16.02;;
72882;SDS011;61017;37.812;-122.286;2022-10-16T10:26:18;24.85;;;17.33;;
72882;SDS011;61017;37.812;-122.286;2022-10-16T10:28:16;23.83;;;16.13;;
72882;SDS011;61017;37.812;-122.286;2022-10-16T10:30:37;25.02;;;16.88;;
72882;SDS011;61017;37.812;-122.286;2022-10-16T10:35:13;26.38;;;16.42;;
72882;SDS011;61017;37.812;-122.286;2022-10-16T10:39:33;25.08;;;16.42;;
72882;SDS011;61017;37.812;-122.286;2022-10-16T10:45:26;27.42;;;17.27;;
72882;SDS011;61017;37.812;-122.286;2022-10-16T10:51:58;27.30;;;16.73;;
72882;SDS011;61017;37.812;-122.286;2022-10-16T10:54:02;28.80;;;17.23;;
72882;SDS011;61017;37.812;-122.286;2022-10-16T11:02:23;27.25;;;16.58;;
72882;SDS011;61017;37.812;-122.286;2022-10-16T11:07:26;27.80;;;16.65;;
72882;SDS011;61017;37.812;-122.286;2022-10-16T11:13:44;27.27;;;17.17;;
72882;SDS011;61017;37.812;-122.286;2022-10-16T11:15:43;29.13;;;17.98;;
72882;SDS011;61017;37.812;-122.286;2022-10-16T11:17:42;28.13;;;16.73;;
72882;SDS011;61017;37.812;-122.286;2022-10-16T11:19:52;27.17;;;16.80;;
72882;SDS011;61017;37.812;-122.286;2022-10-16T11:21:50;28.55;;;17.45;;
72882;SDS011;61017;37.812;-122.286;2022-10-16T11:24:00;28.70;;;18.08;;
72882;SDS011;61017;37.812;-122.286;2022-10-16T11:26:01;26.67;;;17.17;;
72882;SDS011;61017;37.812;-122.286;2022-10-16T11:30:18;28.85;;;17.90;;
72882;SDS011;61017;37.812;-122.286;2022-10-16T11:32:18;28.58;;;17.45;;
72882;SDS011;61017;37.812;-122.286;2022-10-16T11:34:42;29.20;;;17.15;;
72882;SDS011;61017;37.812;-122.286;2022-10-16T11:36:45;26.35;;;16.90;;
72882;SDS011;61017;37.812;-122.286;2022-10-16T11:40:37;26.98;;;17.52;;
72882;SDS011;61017;37.812;-122.286;2022-10-16T11:42:40;29.00;;;17.58;;
72882;SDS011;61017;37.812;-122.286;2022-10-16T11:44:41;29.65;;;17.23;;
72882;SDS011;61017;37.812;-122.286;2022-10-16T11:46:58;28.35;;;17.65;;
72882;SDS011;61017;37.812;-122.286;2022-10-16T11:51:08;26.42;;;16.65;;